Weather at Aichach Glider Field

Public forecast

Using degrees Celsius for public forecast. Weather courtesy of forecast.io.

Closest aviation weather report (METAR) to Aichach Glider Field

Closest report is Augsburg Airport, 8.5 nm (15.8 km) WSW.

2022/12/10 02:50 (retrieved 14 minutes ago)

EDMA 100250Z AUTO 01003KT 6000 // BKN014/// BKN018/// OVC022/// M00/M01 Q1003

Closest aviation forecast (TAF) to Aichach Glider Field

Forecast is more than 6 hours old.

Closest forecast is Ansbach Army Heliport, 53.9 nm (99.8 km) NNW.

2022/12/09 15:14 (retrieved 12 hours ago)

TAF ETEB 091500Z 0915/1021 05009KT 8000 BR BKN030 OVC060 QNH2957INS BECMG 1006/1007 02005KT 1600 -SN BR SCT002 OVC007 650078 QNH2965INS TEMPO 1010/1016 OVC010 BECMG 1015/1016 33005KT 4000 BR SCT003 OVC009 QNH2970INS TX01/1011Z TNM02/1002Z LAST NO AMDS AFT 0921 NEXT 1207